Time;durP1;ratioP1;P1;durP2;ratioP2;P2;SDS_P1;SDS_P2;PMS_P1;PMS_P2;Temp;Humidity;BMP_temperature;BMP_pressure;BME280_temperature;BME280_humidity;BME280_pressure;Samples;Min_cycle;Max_cycle;Signal;HPM_P1;HPM_P2
2023/05/10 00:01:24;;;;;;;;;;;;;;;;;;5052321;28;19971;-61
2023/05/10 00:03:50;;;;;;;;;;;;;;;;;;5063255;28;19931;-61
2023/05/10 00:06:15;;;;;;;;;;;;;;;;;;5052018;28;19916;-61
2023/05/10 00:08:41;;;;;;;;;;;;;;;;;;5050449;28;19957;-61
2023/05/10 00:11:07;;;;;;;;;;;;;;;;;;5063511;28;19981;-60
2023/05/10 00:13:33;;;;;;;;;;;;;;;;;;5071781;28;19946;-61
2023/05/10 00:15:59;;;;;;;;;;;;;;;;;;5071879;28;19909;-61
2023/05/10 00:18:25;;;;;;;;;;;;;;;;;;5070114;28;19916;-61
2023/05/10 00:20:51;;;;;;;;;;;;;;;;;;5062408;28;19917;-61
2023/05/10 00:23:17;;;;;;;;;;;;;;;;;;5050638;28;19916;-61
2023/05/10 00:25:43;;;;;;;;;;;;;;;;;;5058827;28;19999;-61
2023/05/10 00:28:09;;;;;;;;;;;;;;;;;;5071649;28;20023;-61
2023/05/10 00:30:35;;;;;;;;;;;;;;;;;;5066251;28;19913;-61
2023/05/10 00:33:01;;;;;;;;;;;;;;;;;;5049735;28;19966;-60
2023/05/10 00:35:27;;;;;;;;;;;;;;;;;;5050440;28;20432;-61
2023/05/10 00:37:53;;;;;;;;;;;;;;;;;;5050709;28;20005;-61
2023/05/10 00:40:18;;;;;;;;;;;;;;;;;;5056109;28;19917;-61
2023/05/10 00:42:44;;;;;;;;;;;;;;;;;;5059010;28;19916;-61
2023/05/10 00:45:11;;;;;;;;;;;;;;;;;;5055095;28;20373;-61
2023/05/10 00:47:37;;;;;;;;;;;;;;;;;;5054281;28;20372;-61
2023/05/10 00:50:03;;;;;;;;;;;;;;;;;;5054792;28;20192;-61
2023/05/10 00:52:29;;;;;;;;;;;;;;;;;;5065135;28;20007;-61
2023/05/10 00:54:55;;;;;;;;;;;;;;;;;;5054696;28;20400;-61
2023/05/10 00:57:21;;;;;;;;;;;;;;;;;;5052361;28;19924;-61
2023/05/10 00:59:46;;;;;;;;;;;;;;;;;;5053968;28;19917;-61
2023/05/10 01:02:13;;;;;;;;;;;;;;;;;;5054279;28;19913;-57
2023/05/10 01:04:39;;;;;;;;;;;;;;;;;;5053857;28;19921;-58
2023/05/10 01:07:05;;;;;;;;;;;;;;;;;;5052284;28;19913;-57
2023/05/10 01:09:31;;;;;;;;;;;;;;;;;;5067224;28;20030;-57
2023/05/10 01:11:56;;;;;;;;;;;;;;;;;;5056849;28;20514;-57
2023/05/10 01:14:22;;;;;;;;;;;;;;;;;;5054513;28;19921;-57
2023/05/10 01:16:48;;;;;;;;;;;;;;;;;;5053239;28;19913;-57
2023/05/10 01:19:14;;;;;;;;;;;;;;;;;;5067434;28;19963;-57
2023/05/10 01:21:40;;;;;;;;;;;;;;;;;;5062090;28;20434;-57
2023/05/10 01:24:06;;;;;;;;;;;;;;;;;;5052667;28;20011;-57
2023/05/10 01:26:32;;;;;;;;;;;;;;;;;;5059481;28;19971;-57
2023/05/10 01:28:58;;;;;;;;;;;;;;;;;;5053673;28;20388;-57
2023/05/10 01:31:24;;;;;;;;;;;;;;;;;;5055832;28;19936;-56
2023/05/10 01:33:50;;;;;;;;;;;;;;;;;;5035923;28;19913;-57
2023/05/10 01:36:16;;;;;;;;;;;;;;;;;;5052471;28;19998;-57
2023/05/10 01:38:42;;;;;;;;;;;;;;;;;;5052557;28;19956;-57
2023/05/10 01:41:08;;;;;;;;;;;;;;;;;;5057899;28;19956;-56
2023/05/10 01:43:34;;;;;;;;;;;;;;;;;;5053883;28;20354;-58
2023/05/10 01:46:00;;;;;;;;;;;;;;;;;;5053068;28;19913;-58
2023/05/10 01:48:27;;;;;;;;;;;;;;;;;;5052776;28;19926;-58
2023/05/10 01:50:52;;;;;;;;;;;;;;;;;;5052633;28;19963;-58
2023/05/10 01:53:18;;;;;;;;;;;;;;;;;;5053384;28;20338;-58
2023/05/10 01:55:45;;;;;;;;;;;;;;;;;;5055908;28;19952;-58
2023/05/10 01:58:11;;;;;;;;;;;;;;;;;;5052688;28;20015;-58
2023/05/10 02:00:37;;;;;;;;;;;;;;;;;;5053686;28;20012;-58
2023/05/10 02:03:03;;;;;;;;;;;;;;;;;;5053595;28;20296;-58
2023/05/10 02:05:28;;;;;;;;;;;;;;;;;;5053842;28;19920;-57
2023/05/10 02:07:55;;;;;;;;;;;;;;;;;;5052918;28;19912;-57
2023/05/10 02:10:21;;;;;;;;;;;;;;;;;;5063396;28;20303;-57
2023/05/10 02:12:47;;;;;;;;;;;;;;;;;;5058323;28;19999;-58
2023/05/10 02:15:13;;;;;;;;;;;;;;;;;;5052442;28;20012;-57
2023/05/10 02:17:38;;;;;;;;;;;;;;;;;;5053783;28;20301;-58
2023/05/10 02:20:04;;;;;;;;;;;;;;;;;;5062436;28;20389;-58
2023/05/10 02:22:30;;;;;;;;;;;;;;;;;;5052827;28;19919;-57
2023/05/10 02:24:56;;;;;;;;;;;;;;;;;;5053429;28;20268;-57
2023/05/10 02:27:22;;;;;;;;;;;;;;;;;;5068179;28;19974;-58
2023/05/10 02:29:48;;;;;;;;;;;;;;;;;;5060388;28;19909;-58
2023/05/10 02:32:14;;;;;;;;;;;;;;;;;;5052718;28;19999;-57
2023/05/10 02:34:40;;;;;;;;;;;;;;;;;;5056300;28;19992;-57
2023/05/10 02:37:06;;;;;;;;;;;;;;;;;;5049877;28;19998;-57
2023/05/10 02:39:32;;;;;;;;;;;;;;;;;;5051693;28;19927;-57
2023/05/10 02:41:57;;;;;;;;;;;;;;;;;;5048142;28;20364;-57
2023/05/10 02:44:23;;;;;;;;;;;;;;;;;;5051515;28;19959;-58
2023/05/10 02:46:49;;;;;;;;;;;;;;;;;;5050868;28;19913;-57
2023/05/10 02:49:15;;;;;;;;;;;;;;;;;;5052795;28;19983;-57
2023/05/10 02:51:41;;;;;;;;;;;;;;;;;;5051153;28;19917;-58
2023/05/10 02:54:07;;;;;;;;;;;;;;;;;;5049540;28;20456;-57
2023/05/10 02:56:33;;;;;;;;;;;;;;;;;;5059510;28;20006;-58
2023/05/10 02:58:59;;;;;;;;;;;;;;;;;;5052164;28;20428;-57
2023/05/10 03:01:25;;;;;;;;;;;;;;;;;;5046902;28;19913;-58
2023/05/10 03:03:51;;;;;;;;;;;;;;;;;;5052254;28;19917;-58
2023/05/10 03:06:16;;;;;;;;;;;;;;;;;;5045396;28;20071;-58
2023/05/10 03:08:42;;;;;;;;;;;;;;;;;;5050684;28;19923;-58
2023/05/10 03:11:08;;;;;;;;;;;;;;;;;;5050913;28;19913;-57
2023/05/10 03:13:35;;;;;;;;;;;;;;;;;;5046284;28;19967;-58
2023/05/10 03:16:01;;;;;;;;;;;;;;;;;;5042843;28;20392;-58
2023/05/10 03:18:27;;;;;;;;;;;;;;;;;;5049982;28;19956;-58
2023/05/10 03:20:52;;;;;;;;;;;;;;;;;;5062920;28;20018;-58
2023/05/10 03:23:18;;;;;;;;;;;;;;;;;;5049135;28;19916;-57
2023/05/10 03:25:44;;;;;;;;;;;;;;;;;;5050851;28;19913;-57
2023/05/10 03:28:10;;;;;;;;;;;;;;;;;;5049643;28;19992;-58
2023/05/10 03:30:36;;;;;;;;;;;;;;;;;;5059726;28;19958;-57
2023/05/10 03:33:02;;;;;;;;;;;;;;;;;;5050172;28;19917;-57
2023/05/10 03:35:28;;;;;;;;;;;;;;;;;;5050447;28;19912;-58
2023/05/10 03:37:54;;;;;;;;;;;;;;;;;;5053775;28;20042;-57
2023/05/10 03:40:20;;;;;;;;;;;;;;;;;;5057912;28;19913;-57
2023/05/10 03:42:46;;;;;;;;;;;;;;;;;;5059470;28;19917;-57
2023/05/10 03:45:12;;;;;;;;;;;;;;;;;;5061287;28;19951;-57
2023/05/10 03:47:38;;;;;;;;;;;;;;;;;;5049086;28;19952;-58
2023/05/10 03:50:04;;;;;;;;;;;;;;;;;;5058256;28;20003;-57
2023/05/10 03:52:30;;;;;;;;;;;;;;;;;;5051379;28;20420;-58
2023/05/10 03:54:56;;;;;;;;;;;;;;;;;;5053566;28;19912;-57
2023/05/10 03:57:22;;;;;;;;;;;;;;;;;;5051560;28;19994;-58
2023/05/10 03:59:48;;;;;;;;;;;;;;;;;;5053772;28;19939;-57
2023/05/10 04:02:13;;;;;;;;;;;;;;;;;;5060006;28;19913;-58
2023/05/10 04:04:39;;;;;;;;;;;;;;;;;;5047620;28;19974;-57
2023/05/10 04:07:05;;;;;;;;;;;;;;;;;;5050101;28;19927;-57
2023/05/10 04:09:32;;;;;;;;;;;;;;;;;;5050216;28;20007;-57
2023/05/10 04:11:58;;;;;;;;;;;;;;;;;;5044876;28;19913;-57
2023/05/10 04:14:24;;;;;;;;;;;;;;;;;;5057953;28;19967;-57
2023/05/10 04:16:50;;;;;;;;;;;;;;;;;;5054496;28;20415;-57
2023/05/10 04:19:16;;;;;;;;;;;;;;;;;;5061686;28;19956;-57
2023/05/10 04:21:42;;;;;;;;;;;;;;;;;;5053427;28;19919;-57
2023/05/10 04:24:08;;;;;;;;;;;;;;;;;;5054983;28;19919;-57
2023/05/10 04:26:33;;;;;;;;;;;;;;;;;;5054607;28;19921;-57
2023/05/10 04:28:59;;;;;;;;;;;;;;;;;;5054208;28;20431;-57
2023/05/10 04:31:26;;;;;;;;;;;;;;;;;;5054408;28;19920;-57
2023/05/10 04:33:52;;;;;;;;;;;;;;;;;;5054974;28;20291;-58
2023/05/10 04:36:18;;;;;;;;;;;;;;;;;;5053754;28;20008;-57
2023/05/10 04:38:44;;;;;;;;;;;;;;;;;;5052933;28;20052;-57
2023/05/10 04:41:10;;;;;;;;;;;;;;;;;;5065870;28;19956;-56
2023/05/10 04:43:36;;;;;;;;;;;;;;;;;;5044760;28;19920;-57
2023/05/10 04:46:02;;;;;;;;;;;;;;;;;;5046797;28;19999;-57
2023/05/10 04:48:28;;;;;;;;;;;;;;;;;;5046928;28;19967;-56
2023/05/10 04:50:54;;;;;;;;;;;;;;;;;;5053012;28;20343;-58
2023/05/10 04:53:20;;;;;;;;;;;;;;;;;;5053153;28;19990;-57
2023/05/10 04:55:46;;;;;;;;;;;;;;;;;;5055391;28;20380;-57
2023/05/10 04:58:12;;;;;;;;;;;;;;;;;;5054791;28;20360;-56
2023/05/10 05:00:38;;;;;;;;;;;;;;;;;;5052699;28;19958;-57
2023/05/10 05:03:04;;;;;;;;;;;;;;;;;;5052176;28;20007;-57
2023/05/10 05:05:30;;;;;;;;;;;;;;;;;;5054184;28;20305;-56
2023/05/10 05:07:56;;;;;;;;;;;;;;;;;;5052132;28;19927;-58
2023/05/10 05:10:22;;;;;;;;;;;;;;;;;;5053254;28;19909;-57
2023/05/10 05:12:48;;;;;;;;;;;;;;;;;;5051276;28;19957;-57
2023/05/10 05:15:16;;;;;;;;;;;;;;;;;;5053832;28;19916;-57
2023/05/10 05:17:42;;;;;;;;;;;;;;;;;;5064498;28;19963;-57
2023/05/10 05:20:08;;;;;;;;;;;;;;;;;;5051597;28;19960;-57
2023/05/10 05:22:34;;;;;;;;;;;;;;;;;;5052400;28;19920;-57
2023/05/10 05:25:02;;;;;;;;;;;;;;;;;;5055169;28;19955;-57
2023/05/10 05:27:28;;;;;;;;;;;;;;;;;;5043294;28;19975;-57
2023/05/10 05:29:54;;;;;;;;;;;;;;;;;;5042637;28;20380;-57
2023/05/10 05:32:20;;;;;;;;;;;;;;;;;;5049317;28;19955;-58
2023/05/10 05:34:46;;;;;;;;;;;;;;;;;;5071083;28;19947;-57
2023/05/10 05:37:11;;;;;;;;;;;;;;;;;;5068149;28;19952;-57
2023/05/10 05:39:37;;;;;;;;;;;;;;;;;;5072772;28;19917;-56
2023/05/10 05:42:03;;;;;;;;;;;;;;;;;;5072142;28;20110;-57
2023/05/10 05:44:29;;;;;;;;;;;;;;;;;;5072737;28;19912;-57
2023/05/10 05:46:55;;;;;;;;;;;;;;;;;;5074275;28;20003;-57
2023/05/10 05:49:21;;;;;;;;;;;;;;;;;;5073976;28;19923;-58
2023/05/10 05:51:49;;;;;;;;;;;;;;;;;;5073712;28;20363;-57
2023/05/10 05:54:15;;;;;;;;;;;;;;;;;;5080658;28;19912;-57
2023/05/10 05:56:41;;;;;;;;;;;;;;;;;;5073781;28;20425;-57
2023/05/10 05:59:07;;;;;;;;;;;;;;;;;;5073561;28;19909;-58
2023/05/10 06:01:32;;;;;;;;;;;;;;;;;;5073242;28;20344;-57
2023/05/10 06:03:58;;;;;;;;;;;;;;;;;;5073645;28;19909;-56
2023/05/10 06:06:24;;;;;;;;;;;;;;;;;;5073535;28;19908;-56
2023/05/10 06:08:51;;;;;;;;;;;;;;;;;;5073522;28;19919;-58
2023/05/10 06:11:17;;;;;;;;;;;;;;;;;;5083656;28;19920;-57
2023/05/10 06:13:43;;;;;;;;;;;;;;;;;;5087150;28;20388;-58
2023/05/10 06:16:08;;;;;;;;;;;;;;;;;;5093610;28;20364;-57
2023/05/10 06:18:34;;;;;;;;;;;;;;;;;;5093665;28;19915;-57
2023/05/10 06:21:00;;;;;;;;;;;;;;;;;;5085105;28;20003;-57
2023/05/10 06:23:26;;;;;;;;;;;;;;;;;;5072812;28;19908;-57
2023/05/10 06:25:52;;;;;;;;;;;;;;;;;;5072842;28;19912;-56
2023/05/10 06:28:18;;;;;;;;;;;;;;;;;;5072843;28;20280;-58
2023/05/10 06:30:44;;;;;;;;;;;;;;;;;;5071694;28;19909;-57
2023/05/10 06:33:10;;;;;;;;;;;;;;;;;;5071336;28;19916;-57
2023/05/10 06:35:36;;;;;;;;;;;;;;;;;;5085131;28;20399;-57
2023/05/10 06:38:02;;;;;;;;;;;;;;;;;;5072213;28;19917;-57
2023/05/10 06:40:28;;;;;;;;;;;;;;;;;;5070723;28;19975;-58
2023/05/10 06:42:54;;;;;;;;;;;;;;;;;;5066400;28;20341;-57
2023/05/10 06:45:20;;;;;;;;;;;;;;;;;;5065512;28;20000;-57
2023/05/10 06:47:46;;;;;;;;;;;;;;;;;;5072644;28;20003;-57
2023/05/10 06:50:12;;;;;;;;;;;;;;;;;;5071884;28;20339;-57
2023/05/10 06:52:38;;;;;;;;;;;;;;;;;;5075716;28;19923;-58
2023/05/10 06:55:04;;;;;;;;;;;;;;;;;;5072188;28;19908;-57
2023/05/10 06:57:30;;;;;;;;;;;;;;;;;;5071243;28;20017;-57
2023/05/10 06:59:56;;;;;;;;;;;;;;;;;;5084461;28;19966;-57
2023/05/10 07:02:22;;;;;;;;;;;;;;;;;;5071326;28;19962;-58
2023/05/10 07:04:48;;;;;;;;;;;;;;;;;;5072784;28;19908;-58
2023/05/10 07:07:14;;;;;;;;;;;;;;;;;;5072533;28;20413;-57
2023/05/10 07:09:40;;;;;;;;;;;;;;;;;;5072073;28;19972;-58
2023/05/10 07:12:05;;;;;;;;;;;;;;;;;;5070548;28;20333;-57
2023/05/10 07:14:31;;;;;;;;;;;;;;;;;;5072464;28;19931;-57
2023/05/10 07:16:57;;;;;;;;;;;;;;;;;;5075826;28;19912;-57
2023/05/10 07:19:25;;;;;;;;;;;;;;;;;;5092050;28;22555;-57
2023/05/10 07:21:51;;;;;;;;;;;;;;;;;;5082286;28;19963;-57
2023/05/10 07:24:17;;;;;;;;;;;;;;;;;;5071568;28;19908;-58
2023/05/10 07:26:43;;;;;;;;;;;;;;;;;;5069214;28;19916;-57
2023/05/10 07:29:09;;;;;;;;;;;;;;;;;;5071942;28;20395;-58
2023/05/10 07:31:35;;;;;;;;;;;;;;;;;;5071843;28;20369;-57
2023/05/10 07:34:02;;;;;;;;;;;;;;;;;;5071856;28;19916;-58
2023/05/10 07:36:27;;;;;;;;;;;;;;;;;;5072058;28;20339;-58
2023/05/10 07:38:53;;;;;;;;;;;;;;;;;;5068491;28;20003;-57
2023/05/10 07:41:20;;;;;;;;;;;;;;;;;;5078086;28;19916;-57
2023/05/10 07:43:49;;;;;;;;;;;;;;;;;;5072071;28;19909;-57
2023/05/10 07:46:15;;;;;;;;;;;;;;;;;;5071853;28;19947;-57
2023/05/10 07:48:41;;;;;;;;;;;;;;;;;;5074509;28;19963;-58
2023/05/10 07:51:09;;;;;;;;;;;;;;;;;;5075458;28;20441;-58
2023/05/10 07:53:35;;;;;;;;;;;;;;;;;;5075874;28;19909;-57
2023/05/10 07:56:01;;;;;;;;;;;;;;;;;;5075069;28;20421;-57
2023/05/10 07:58:27;;;;;;;;;;;;;;;;;;5076606;28;19958;-57
2023/05/10 08:00:52;;;;;;;;;;;;;;;;;;5093092;28;19934;-58
2023/05/10 08:03:18;;;;;;;;;;;;;;;;;;5078706;28;19915;-57
2023/05/10 08:05:44;;;;;;;;;;;;;;;;;;5076015;28;19913;-57
2023/05/10 08:08:10;;;;;;;;;;;;;;;;;;5075729;28;20029;-58
2023/05/10 08:10:36;;;;;;;;;;;;;;;;;;5073873;28;20383;-57
2023/05/10 08:13:02;;;;;;;;;;;;;;;;;;5075525;28;19919;-58
2023/05/10 08:15:28;;;;;;;;;;;;;;;;;;5087803;28;20268;-58
2023/05/10 08:17:54;;;;;;;;;;;;;;;;;;5075011;28;20003;-57
2023/05/10 08:20:20;;;;;;;;;;;;;;;;;;5075416;28;20402;-58
2023/05/10 08:22:46;;;;;;;;;;;;;;;;;;5074734;28;19915;-58
2023/05/10 08:25:12;;;;;;;;;;;;;;;;;;5074863;28;19962;-57
2023/05/10 08:27:38;;;;;;;;;;;;;;;;;;5074130;28;20030;-57
2023/05/10 08:30:04;;;;;;;;;;;;;;;;;;5075190;28;19919;-57
2023/05/10 08:32:30;;;;;;;;;;;;;;;;;;5078840;28;19912;-57
2023/05/10 08:34:56;;;;;;;;;;;;;;;;;;5095668;28;19954;-57
2023/05/10 08:37:22;;;;;;;;;;;;;;;;;;5095458;28;19909;-58
2023/05/10 08:39:48;;;;;;;;;;;;;;;;;;5095076;28;19950;-57
2023/05/10 08:42:14;;;;;;;;;;;;;;;;;;5078955;28;19912;-57
2023/05/10 08:44:40;;;;;;;;;;;;;;;;;;5068148;28;20027;-57
2023/05/10 08:47:09;;;;;;;;;;;;;;;;;;5074586;28;19908;-58
2023/05/10 08:49:35;;;;;;;;;;;;;;;;;;5081696;28;19924;-57
2023/05/10 08:52:00;;;;;;;;;;;;;;;;;;5094647;28;20053;-56
2023/05/10 08:54:26;;;;;;;;;;;;;;;;;;5093246;28;20015;-57
2023/05/10 08:56:53;;;;;;;;;;;;;;;;;;5074963;28;20344;-57
2023/05/10 08:59:19;;;;;;;;;;;;;;;;;;5071622;28;19919;-57
2023/05/10 09:01:45;;;;;;;;;;;;;;;;;;5072820;28;19931;-57
2023/05/10 09:04:11;;;;;;;;;;;;;;;;;;5073595;28;19912;-57
2023/05/10 09:06:37;;;;;;;;;;;;;;;;;;5073096;28;20003;-56
2023/05/10 09:09:03;;;;;;;;;;;;;;;;;;5074389;28;20015;-57
2023/05/10 09:11:29;;;;;;;;;;;;;;;;;;5073026;28;20265;-57
2023/05/10 09:13:56;;;;;;;;;;;;;;;;;;5073574;28;19924;-57
2023/05/10 09:16:21;;;;;;;;;;;;;;;;;;5083705;28;19921;-57
2023/05/10 09:18:49;;;;;;;;;;;;;;;;;;5074553;28;20081;-57
2023/05/10 09:21:15;;;;;;;;;;;;;;;;;;5071375;28;19916;-56
2023/05/10 09:23:40;;;;;;;;;;;;;;;;;;5074357;28;20269;-57
2023/05/10 09:26:06;;;;;;;;;;;;;;;;;;5091399;28;19912;-57
2023/05/10 09:28:33;;;;;;;;;;;;;;;;;;5094606;28;19912;-57
2023/05/10 09:30:59;;;;;;;;;;;;;;;;;;5075042;28;19912;-57
2023/05/10 09:33:24;;;;;;;;;;;;;;;;;;5074340;28;20290;-58
2023/05/10 09:35:50;;;;;;;;;;;;;;;;;;5073079;28;19995;-58
2023/05/10 09:38:16;;;;;;;;;;;;;;;;;;5074429;28;19915;-58
2023/05/10 09:40:42;;;;;;;;;;;;;;;;;;5073508;28;19916;-57
2023/05/10 09:43:08;;;;;;;;;;;;;;;;;;5074700;28;19913;-56
2023/05/10 09:45:34;;;;;;;;;;;;;;;;;;5073435;28;20420;-57
2023/05/10 09:48:00;;;;;;;;;;;;;;;;;;5073870;28;20049;-57
2023/05/10 09:50:26;;;;;;;;;;;;;;;;;;5073000;28;19912;-57
2023/05/10 09:52:52;;;;;;;;;;;;;;;;;;5074101;28;19948;-58
2023/05/10 09:55:18;;;;;;;;;;;;;;;;;;5074074;28;20376;-57
2023/05/10 09:57:44;;;;;;;;;;;;;;;;;;5072633;28;19958;-56
2023/05/10 10:00:10;;;;;;;;;;;;;;;;;;5082711;28;19916;-57
2023/05/10 10:02:36;;;;;;;;;;;;;;;;;;5093976;28;19912;-58
2023/05/10 10:05:03;;;;;;;;;;;;;;;;;;5073224;28;19995;-57
2023/05/10 10:07:28;;;;;;;;;;;;;;;;;;5072499;28;20011;-57
2023/05/10 10:09:54;;;;;;;;;;;;;;;;;;5073402;28;20003;-57
2023/05/10 10:12:20;;;;;;;;;;;;;;;;;;5073330;28;19915;-56
2023/05/10 10:14:47;;;;;;;;;;;;;;;;;;5078096;28;19963;-58
2023/05/10 10:17:12;;;;;;;;;;;;;;;;;;5091918;28;19966;-57
2023/05/10 10:19:38;;;;;;;;;;;;;;;;;;5091105;28;20391;-57
2023/05/10 10:22:04;;;;;;;;;;;;;;;;;;5093506;28;19933;-58
2023/05/10 10:24:30;;;;;;;;;;;;;;;;;;5093426;28;19919;-57
2023/05/10 10:26:57;;;;;;;;;;;;;;;;;;5093513;28;19912;-58
2023/05/10 10:29:22;;;;;;;;;;;;;;;;;;5093379;28;20007;-57
2023/05/10 10:31:50;;;;;;;;;;;;;;;;;;5081175;28;20014;-57
2023/05/10 10:34:16;;;;;;;;;;;;;;;;;;5072896;28;19943;-58
2023/05/10 10:36:42;;;;;;;;;;;;;;;;;;5076265;28;20018;-57
2023/05/10 10:39:08;;;;;;;;;;;;;;;;;;5073707;28;19915;-57
2023/05/10 10:41:34;;;;;;;;;;;;;;;;;;5072671;28;19943;-57
2023/05/10 10:44:00;;;;;;;;;;;;;;;;;;5070868;28;19961;-57
2023/05/10 10:46:26;;;;;;;;;;;;;;;;;;5052713;28;19913;-57
2023/05/10 10:48:52;;;;;;;;;;;;;;;;;;5067080;28;20315;-57
2023/05/10 10:51:18;;;;;;;;;;;;;;;;;;5068095;28;20032;-57
2023/05/10 10:53:44;;;;;;;;;;;;;;;;;;5072418;28;19967;-57
2023/05/10 10:56:10;;;;;;;;;;;;;;;;;;5072581;28;20376;-57
2023/05/10 10:58:36;;;;;;;;;;;;;;;;;;5072936;28;19959;-57
2023/05/10 11:01:02;;;;;;;;;;;;;;;;;;5072354;28;19939;-57
2023/05/10 11:03:28;;;;;;;;;;;;;;;;;;5078973;28;19959;-57
2023/05/10 11:05:54;;;;;;;;;;;;;;;;;;5071346;28;19919;-57
2023/05/10 11:08:21;;;;;;;;;;;;;;;;;;5079384;28;19968;-57
2023/05/10 11:10:47;;;;;;;;;;;;;;;;;;5076013;28;19916;-58
2023/05/10 11:13:13;;;;;;;;;;;;;;;;;;5072559;28;19982;-58
2023/05/10 11:15:39;;;;;;;;;;;;;;;;;;5074477;28;19992;-58
2023/05/10 11:18:05;;;;;;;;;;;;;;;;;;5072532;28;20003;-57
2023/05/10 11:20:33;;;;;;;;;;;;;;;;;;5072107;28;19926;-58
2023/05/10 11:22:59;;;;;;;;;;;;;;;;;;5070786;28;19966;-58
2023/05/10 11:25:25;;;;;;;;;;;;;;;;;;5082268;28;19916;-57
2023/05/10 11:27:50;;;;;;;;;;;;;;;;;;5074325;28;20372;-55
2023/05/10 11:30:16;;;;;;;;;;;;;;;;;;5092176;28;19915;-58
2023/05/10 11:32:42;;;;;;;;;;;;;;;;;;5092573;28;20287;-55
2023/05/10 11:35:08;;;;;;;;;;;;;;;;;;5092435;28;19912;-55
2023/05/10 11:37:34;;;;;;;;;;;;;;;;;;5092443;28;19947;-56
2023/05/10 11:40:00;;;;;;;;;;;;;;;;;;5070535;28;20007;-56
2023/05/10 11:42:26;;;;;;;;;;;;;;;;;;5082687;28;20384;-55
2023/05/10 11:44:52;;;;;;;;;;;;;;;;;;5092524;28;19958;-55
2023/05/10 11:47:18;;;;;;;;;;;;;;;;;;5092363;28;19912;-55
2023/05/10 11:49:44;;;;;;;;;;;;;;;;;;5085238;28;19916;-56
2023/05/10 11:52:11;;;;;;;;;;;;;;;;;;5070751;28;19965;-55
2023/05/10 11:54:37;;;;;;;;;;;;;;;;;;5071436;28;19916;-55
2023/05/10 11:57:03;;;;;;;;;;;;;;;;;;5070917;28;19913;-55
2023/05/10 11:59:28;;;;;;;;;;;;;;;;;;5071048;28;19971;-55
2023/05/10 12:01:54;;;;;;;;;;;;;;;;;;5068210;28;19952;-55
2023/05/10 12:04:20;;;;;;;;;;;;;;;;;;5077059;28;19916;-55
2023/05/10 12:06:46;;;;;;;;;;;;;;;;;;5070916;28;19920;-56
2023/05/10 12:09:12;;;;;;;;;;;;;;;;;;5072664;28;20284;-55
2023/05/10 12:11:39;;;;;;;;;;;;;;;;;;5070395;28;19963;-56
2023/05/10 12:14:05;;;;;;;;;;;;;;;;;;5071008;28;20768;-56
2023/05/10 12:16:31;;;;;;;;;;;;;;;;;;5067008;28;19966;-55
2023/05/10 12:18:57;;;;;;;;;;;;;;;;;;5069856;28;19909;-56
2023/05/10 12:21:22;;;;;;;;;;;;;;;;;;5071323;28;20368;-55
2023/05/10 12:23:48;;;;;;;;;;;;;;;;;;5071374;28;20039;-56
2023/05/10 12:26:14;;;;;;;;;;;;;;;;;;5071954;28;19931;-55
2023/05/10 12:28:40;;;;;;;;;;;;;;;;;;5084409;28;19916;-56
2023/05/10 12:31:06;;;;;;;;;;;;;;;;;;5072596;28;19909;-56
2023/05/10 12:33:32;;;;;;;;;;;;;;;;;;5072330;28;19919;-55
2023/05/10 12:35:58;;;;;;;;;;;;;;;;;;5074061;28;19913;-55
2023/05/10 12:38:24;;;;;;;;;;;;;;;;;;5075048;28;19909;-55
2023/05/10 12:40:50;;;;;;;;;;;;;;;;;;5074972;28;19988;-55
2023/05/10 12:43:16;;;;;;;;;;;;;;;;;;5075278;28;20420;-55
2023/05/10 12:45:42;;;;;;;;;;;;;;;;;;5066799;28;19971;-55
2023/05/10 12:48:08;;;;;;;;;;;;;;;;;;5057685;28;20691;-55
2023/05/10 12:50:34;;;;;;;;;;;;;;;;;;5074350;28;19908;-55
2023/05/10 12:53:00;;;;;;;;;;;;;;;;;;5092935;28;20340;-55
2023/05/10 12:55:26;;;;;;;;;;;;;;;;;;5087330;28;20328;-55
2023/05/10 12:57:52;;;;;;;;;;;;;;;;;;5073561;28;19951;-55
2023/05/10 13:00:18;;;;;;;;;;;;;;;;;;5073608;28;19909;-57
2023/05/10 13:02:43;;;;;;;;;;;;;;;;;;5085774;28;19943;-56
2023/05/10 13:05:09;;;;;;;;;;;;;;;;;;5092087;28;20364;-55
2023/05/10 13:07:36;;;;;;;;;;;;;;;;;;5074261;28;20372;-55
2023/05/10 13:10:02;;;;;;;;;;;;;;;;;;5074477;28;19971;-56
2023/05/10 13:12:27;;;;;;;;;;;;;;;;;;5070342;28;19951;-57
2023/05/10 13:14:53;;;;;;;;;;;;;;;;;;5072182;28;19928;-56
2023/05/10 13:17:19;;;;;;;;;;;;;;;;;;5072698;28;19960;-55
2023/05/10 13:19:45;;;;;;;;;;;;;;;;;;5072742;28;20344;-55
2023/05/10 13:22:11;;;;;;;;;;;;;;;;;;5083196;28;19998;-56
2023/05/10 13:24:37;;;;;;;;;;;;;;;;;;5074489;28;19909;-56
2023/05/10 13:27:03;;;;;;;;;;;;;;;;;;5072818;28;19908;-55
2023/05/10 13:29:29;;;;;;;;;;;;;;;;;;5074575;28;19971;-55
2023/05/10 13:31:55;;;;;;;;;;;;;;;;;;5072343;28;20318;-56
2023/05/10 13:34:21;;;;;;;;;;;;;;;;;;5074241;28;19912;-55
2023/05/10 13:36:47;;;;;;;;;;;;;;;;;;5073833;28;19924;-55
2023/05/10 13:39:13;;;;;;;;;;;;;;;;;;5086073;28;19997;-55
2023/05/10 13:41:38;;;;;;;;;;;;;;;;;;5091122;28;20403;-56
2023/05/10 13:44:04;;;;;;;;;;;;;;;;;;5078592;28;19958;-56
2023/05/10 13:46:30;;;;;;;;;;;;;;;;;;5073268;28;19916;-55
2023/05/10 13:48:56;;;;;;;;;;;;;;;;;;5073729;28;20009;-55
2023/05/10 13:51:22;;;;;;;;;;;;;;;;;;5073359;28;19912;-55
2023/05/10 13:53:48;;;;;;;;;;;;;;;;;;5072733;28;19912;-55
2023/05/10 13:56:14;;;;;;;;;;;;;;;;;;5073495;28;20375;-55
2023/05/10 13:58:41;;;;;;;;;;;;;;;;;;5073925;28;19919;-55
2023/05/10 14:01:07;;;;;;;;;;;;;;;;;;5073087;28;19915;-55
2023/05/10 14:03:33;;;;;;;;;;;;;;;;;;5084446;28;19920;-55
2023/05/10 14:05:59;;;;;;;;;;;;;;;;;;5073408;28;20424;-56
2023/05/10 14:08:26;;;;;;;;;;;;;;;;;;5073605;28;20061;-56
2023/05/10 14:10:52;;;;;;;;;;;;;;;;;;5060399;28;19916;-55
2023/05/10 14:13:18;;;;;;;;;;;;;;;;;;5071201;28;19913;-57
2023/05/10 14:15:44;;;;;;;;;;;;;;;;;;5064764;28;20415;-55
2023/05/10 14:18:11;;;;;;;;;;;;;;;;;;5070375;28;19912;-56
2023/05/10 14:20:37;;;;;;;;;;;;;;;;;;5070413;28;20020;-55
2023/05/10 14:23:03;;;;;;;;;;;;;;;;;;5072004;28;20003;-56
2023/05/10 14:25:28;;;;;;;;;;;;;;;;;;5069912;28;19923;-57
2023/05/10 14:27:54;;;;;;;;;;;;;;;;;;5062131;28;19994;-58
2023/05/10 14:30:20;;;;;;;;;;;;;;;;;;5071039;28;19916;-57
2023/05/10 14:32:46;;;;;;;;;;;;;;;;;;5071332;28;19939;-57
2023/05/10 14:35:12;;;;;;;;;;;;;;;;;;5073907;28;19962;-57
2023/05/10 14:37:38;;;;;;;;;;;;;;;;;;5066324;28;19943;-57
2023/05/10 14:40:04;;;;;;;;;;;;;;;;;;5070102;28;19967;-57
2023/05/10 14:42:31;;;;;;;;;;;;;;;;;;5067865;28;19913;-58
2023/05/10 14:44:57;;;;;;;;;;;;;;;;;;5072230;28;20006;-57
2023/05/10 14:47:22;;;;;;;;;;;;;;;;;;5066968;28;20010;-57
2023/05/10 14:49:48;;;;;;;;;;;;;;;;;;5070929;28;19955;-58
2023/05/10 14:52:14;;;;;;;;;;;;;;;;;;5066852;28;20328;-57
2023/05/10 14:54:40;;;;;;;;;;;;;;;;;;5067111;28;20007;-57
2023/05/10 14:57:06;;;;;;;;;;;;;;;;;;5069997;28;19921;-58
2023/05/10 14:59:32;;;;;;;;;;;;;;;;;;5068968;28;19913;-58
2023/05/10 15:01:58;;;;;;;;;;;;;;;;;;5070118;28;19977;-57
2023/05/10 15:04:24;;;;;;;;;;;;;;;;;;5069093;28;19916;-58
2023/05/10 15:06:50;;;;;;;;;;;;;;;;;;5069471;28;19908;-57
2023/05/10 15:09:16;;;;;;;;;;;;;;;;;;5067046;28;20403;-55
2023/05/10 15:11:42;;;;;;;;;;;;;;;;;;5063090;28;19912;-55
2023/05/10 15:14:08;;;;;;;;;;;;;;;;;;5066372;28;19960;-56
2023/05/10 15:16:34;;;;;;;;;;;;;;;;;;5071045;28;20391;-55
2023/05/10 15:18:59;;;;;;;;;;;;;;;;;;5071224;28;19944;-56
2023/05/10 15:21:27;;;;;;;;;;;;;;;;;;5072796;28;20340;-58
2023/05/10 15:23:53;;;;;;;;;;;;;;;;;;5071046;28;20829;-55
2023/05/10 15:26:19;;;;;;;;;;;;;;;;;;5081465;28;19923;-58
2023/05/10 15:28:45;;;;;;;;;;;;;;;;;;5068947;28;19964;-57
2023/05/10 15:31:11;;;;;;;;;;;;;;;;;;5070502;28;20545;-58
2023/05/10 15:33:36;;;;;;;;;;;;;;;;;;5070870;28;19919;-58
2023/05/10 15:36:03;;;;;;;;;;;;;;;;;;5071984;28;19916;-57
2023/05/10 15:38:29;;;;;;;;;;;;;;;;;;5063741;28;19916;-57
2023/05/10 15:40:55;;;;;;;;;;;;;;;;;;5070168;28;20034;-57
2023/05/10 15:43:21;;;;;;;;;;;;;;;;;;5065576;28;20508;-57
2023/05/10 15:45:47;;;;;;;;;;;;;;;;;;5069380;28;19916;-57
2023/05/10 15:48:13;;;;;;;;;;;;;;;;;;5069394;28;19920;-58
2023/05/10 15:50:40;;;;;;;;;;;;;;;;;;5070829;28;20384;-57
2023/05/10 15:53:06;;;;;;;;;;;;;;;;;;5063765;28;19919;-57
2023/05/10 15:55:31;;;;;;;;;;;;;;;;;;5070781;28;19959;-58
2023/05/10 15:57:57;;;;;;;;;;;;;;;;;;5063934;28;19939;-58
2023/05/10 16:00:24;;;;;;;;;;;;;;;;;;5066366;28;19920;-57
2023/05/10 16:02:50;;;;;;;;;;;;;;;;;;5072933;28;19912;-56
2023/05/10 16:05:15;;;;;;;;;;;;;;;;;;5070370;28;19965;-57
2023/05/10 16:07:41;;;;;;;;;;;;;;;;;;5071627;28;19915;-57
2023/05/10 16:10:07;;;;;;;;;;;;;;;;;;5071786;28;19956;-57
2023/05/10 16:12:33;;;;;;;;;;;;;;;;;;5075238;28;19992;-57
2023/05/10 16:14:59;;;;;;;;;;;;;;;;;;5074095;28;20378;-57
2023/05/10 16:17:25;;;;;;;;;;;;;;;;;;5071783;28;19971;-57
2023/05/10 16:19:51;;;;;;;;;;;;;;;;;;5075105;28;20315;-57
2023/05/10 16:22:17;;;;;;;;;;;;;;;;;;5070294;28;19923;-57
2023/05/10 16:24:43;;;;;;;;;;;;;;;;;;5055276;28;20453;-57
2023/05/10 16:27:09;;;;;;;;;;;;;;;;;;5063417;28;19909;-57
2023/05/10 16:29:35;;;;;;;;;;;;;;;;;;5072591;28;20346;-58
2023/05/10 16:32:00;;;;;;;;;;;;;;;;;;5072761;28;19944;-57
2023/05/10 16:34:26;;;;;;;;;;;;;;;;;;5071462;28;19912;-57
2023/05/10 16:36:52;;;;;;;;;;;;;;;;;;5075036;28;20360;-57